Time;durP1;ratioP1;P1;durP2;ratioP2;P2;SDS_P1;SDS_P2;PMS_P1;PMS_P2;Temp;Humidity;BMP_temperature;BMP_pressure;BME280_temperature;BME280_humidity;BME280_pressure;Samples;Min_cycle;Max_cycle;Signal;HPM_P1;HPM_P2
2023/01/02 00:01:30;;;;;;;13.40;6.45;;;;;;;10.40;100.00;100974.38;4954250;29;20067;-87
2023/01/02 00:03:56;;;;;;;12.38;5.78;;;;;;;10.23;100.00;100949.56;4954158;29;20501;-87
2023/01/02 00:06:23;;;;;;;12.15;6.30;;;;;;;10.45;100.00;100962.03;4954058;29;20042;-85
2023/01/02 00:08:49;;;;;;;11.60;5.75;;;;;;;10.42;100.00;100954.44;4954116;29;20094;-86
2023/01/02 00:11:14;;;;;;;12.68;6.50;;;;;;;10.19;100.00;100914.50;4954249;28;20475;-86
2023/01/02 00:13:39;;;;;;;11.65;5.97;;;;;;;10.24;100.00;100930.59;4957284;29;20023;-85
2023/01/02 00:16:05;;;;;;;17.13;5.97;;;;;;;10.65;100.00;100981.47;4957634;29;20070;-85
2023/01/02 00:18:30;;;;;;;14.38;5.75;;;;;;;10.47;100.00;100953.25;4957821;29;20121;-85
2023/01/02 00:21:00;;;;;;;11.63;6.00;;;;;;;10.70;100.00;100984.59;4957528;29;20027;-84
2023/01/02 00:23:26;;;;;;;10.75;5.57;;;;;;;10.57;100.00;100962.09;4957553;29;20034;-83
2023/01/02 00:25:51;;;;;;;11.60;5.60;;;;;;;10.72;100.00;100981.00;4957688;29;20035;-86
2023/01/02 00:28:16;;;;;;;11.82;6.25;;;;;;;10.73;100.00;100976.69;4957672;29;20050;-86
2023/01/02 00:30:41;;;;;;;14.13;6.40;;;;;;;10.70;100.00;100971.69;4957580;29;20502;-86
2023/01/02 00:33:07;;;;;;;12.60;5.88;;;;;;;10.74;100.00;100965.41;4957546;29;20392;-86
2023/01/02 00:35:33;;;;;;;10.30;5.40;;;;;;;10.56;100.00;100934.63;4957582;29;20360;-86
2023/01/02 00:37:58;;;;;;;11.40;5.53;;;;;;;10.74;100.00;100955.91;4957156;29;20153;-86
2023/01/02 00:40:23;;;;;;;16.17;6.30;;;;;;;10.75;100.00;100949.00;4957551;29;20023;-86
2023/01/02 00:42:48;;;;;;;13.95;6.00;;;;;;;10.75;100.00;100947.25;4957292;29;20055;-86
2023/01/02 00:45:14;;;;;;;15.85;6.93;;;;;;;10.78;100.00;100951.38;4939685;29;20126;-85
2023/01/02 00:47:39;;;;;;;13.82;5.97;;;;;;;10.78;100.00;100957.38;4957362;29;20031;-87
2023/01/02 00:50:05;;;;;;;17.25;6.65;;;;;;;10.79;100.00;100958.19;4957408;29;20031;-86
2023/01/02 00:52:31;;;;;;;13.90;6.72;;;;;;;10.69;100.00;100944.19;4957124;29;20027;-87
2023/01/02 00:54:56;;;;;;;12.07;5.88;;;;;;;10.79;100.00;100951.28;4957165;29;20034;-87
2023/01/02 00:57:21;;;;;;;12.05;6.55;;;;;;;10.83;100.00;100951.94;4957075;29;20027;-85
2023/01/02 00:59:46;;;;;;;13.20;6.03;;;;;;;10.85;100.00;100939.75;4956893;29;20464;-86
2023/01/02 01:02:12;;;;;;;13.35;6.15;;;;;;;10.72;100.00;100918.19;4939452;29;20077;-85
2023/01/02 01:04:37;;;;;;;15.02;7.07;;;;;;;10.76;100.00;100928.22;4956813;29;20115;-84
2023/01/02 01:07:03;;;;;;;14.60;6.55;;;;;;;10.59;100.00;100898.28;4956858;29;20058;-87
2023/01/02 01:09:28;;;;;;;12.40;6.00;;;;;;;10.83;100.00;100933.84;4956642;29;20035;-86
2023/01/02 01:11:53;;;;;;;12.77;6.25;;;;;;;10.83;100.00;100929.50;4956997;29;20054;-86
2023/01/02 01:14:19;;;;;;;16.33;6.60;;;;;;;10.72;100.00;100907.88;4956752;29;20033;-85
2023/01/02 01:16:44;;;;;;;12.68;5.88;;;;;;;10.91;100.00;100934.19;4956910;29;20038;-86
2023/01/02 01:19:10;;;;;;;13.60;6.68;;;;;;;10.65;100.00;100889.31;4939812;29;20098;-86
2023/01/02 01:21:35;;;;;;;12.45;6.07;;;;;;;10.94;100.00;100928.84;4956742;29;20031;-85
2023/01/02 01:24:00;;;;;;;14.55;6.30;;;;;;;10.97;100.00;100927.81;4956026;28;20032;-81
2023/01/02 01:26:26;;;;;;;11.90;6.28;;;;;;;10.90;100.00;100901.53;4956524;29;20035;-86
2023/01/02 01:28:53;;;;;;;12.73;5.85;;;;;;;10.98;100.00;100925.13;4956292;29;20360;-86
2023/01/02 01:31:18;;;;;;;13.48;6.57;;;;;;;10.86;100.00;100908.66;4956706;29;20110;-79
2023/01/02 01:33:44;;;;;;;14.77;5.95;;;;;;;10.86;100.00;100907.81;4956454;29;20098;-86
2023/01/02 01:36:16;;;;;;;14.80;5.90;;;;;;;10.97;100.00;100931.22;4956435;29;20047;-86
2023/01/02 01:38:41;;;;;;;10.88;6.32;;;;;;;10.99;100.00;100926.78;4956290;29;20035;-81
2023/01/02 01:41:07;;;;;;;12.45;5.75;;;;;;;11.03;100.00;100930.84;4939115;29;20383;-85
2023/01/02 01:43:36;;;;;;;12.30;5.28;;;;;;;11.06;100.00;100938.41;4956303;29;20035;-85
2023/01/02 01:46:02;;;;;;;14.93;5.35;;;;;;;11.06;100.00;100935.81;4938986;29;20031;-86
2023/01/02 01:48:28;;;;;;;11.70;5.28;;;;;;;11.07;100.00;100934.88;4956117;29;20035;-85
2023/01/02 01:50:53;;;;;;;13.77;5.65;;;;;;;11.10;100.00;100937.25;4956172;29;20361;-86
2023/01/02 01:53:21;;;;;;;12.63;5.40;;;;;;;10.86;100.00;100897.47;4956050;29;20034;-84
2023/01/02 01:56:00;;;;;;;11.65;4.93;;;;;;;10.83;100.00;100895.09;4955970;29;20435;-86
2023/01/02 01:58:30;;;;;;;12.07;5.40;;;;;;;11.12;100.00;100944.94;4956106;29;20023;-85
2023/01/02 02:00:56;;;;;;;11.80;5.20;;;;;;;11.07;100.00;100942.63;4955737;29;20109;-84
2023/01/02 02:03:26;;;;;;;11.88;4.85;;;;;;;11.00;100.00;100930.19;4955700;29;20039;-85
2023/01/02 02:05:52;;;;;;;14.20;5.43;;;;;;;11.09;100.00;100948.53;4955864;29;20435;-86
2023/01/02 02:08:22;;;;;;;16.60;5.32;;;;;;;11.09;100.00;100955.47;4955700;29;20039;-86
2023/01/02 02:10:49;;;;;;;11.02;5.63;;;;;;;11.03;100.00;100933.44;4955833;29;20031;-86
2023/01/02 02:13:14;;;;;;;13.45;5.07;;;;;;;11.07;100.00;100946.97;4955744;29;20098;-85
2023/01/02 02:15:51;;;;;;;11.60;5.47;;;;;;;11.06;100.00;100946.16;4955877;29;20031;-86
2023/01/02 02:18:34;;;;;;;15.18;5.38;;;;;;;11.06;100.00;100940.97;4955896;29;20037;-86
2023/01/02 02:21:33;;;;;;;;;;;;;;;;;;;;;
2023/01/02 02:24:18;;;;;;;9.52;4.68;;;;;;;11.07;100.00;100944.41;4957668;29;20041;-80
2023/01/02 02:26:56;;;;;;;12.98;5.55;;;;;;;11.07;100.00;100946.97;4960279;29;20450;-80
2023/01/02 02:29:59;;;;;;;14.82;5.57;;;;;;;11.03;100.00;100938.59;4958931;29;20031;-79
2023/01/02 02:32:33;;;;;;;13.52;5.00;;;;;;;11.07;100.00;100952.16;4956553;29;20034;-80
2023/01/02 02:35:03;;;;;;;12.50;4.78;;;;;;;11.07;100.00;100947.81;4954960;28;20110;-83
2023/01/02 02:37:47;;;;;;;11.75;5.30;;;;;;;11.06;100.00;100948.72;4954942;29;20056;-85
2023/01/02 02:40:17;;;;;;;12.10;5.15;;;;;;;11.05;100.00;100941.91;4955310;29;20411;-79
2023/01/02 02:43:00;;;;;;;11.00;4.90;;;;;;;10.99;100.00;100938.88;4955109;29;20019;-81
2023/01/02 02:45:58;;;;;;;10.98;4.82;;;;;;;11.07;100.00;100952.16;4938009;29;20038;-80
2023/01/02 02:48:37;;;;;;;14.57;5.00;;;;;;;11.09;100.00;100952.88;4955265;29;20032;-87
2023/01/02 02:51:34;;;;;;;10.52;5.03;;;;;;;11.05;100.00;100938.50;4955150;29;20031;-82
2023/01/02 02:54:05;;;;;;;13.52;5.18;;;;;;;11.05;100.00;100933.31;4955079;29;20073;-79
2023/01/02 02:56:30;;;;;;;12.25;5.32;;;;;;;11.09;100.00;100948.53;4954684;29;20015;-87
2023/01/02 02:58:56;;;;;;;12.20;4.53;;;;;;;10.95;100.00;100927.91;4955137;29;20039;-87
2023/01/02 03:01:25;;;;;;;17.17;5.35;;;;;;;11.06;100.00;100942.75;4954886;29;20489;-81
2023/01/02 03:03:52;;;;;;;12.32;4.65;;;;;;;11.10;100.00;100934.69;4954990;29;20043;-77
2023/01/02 03:06:17;;;;;;;11.75;3.97;;;;;;;11.08;100.00;100927.97;4954545;29;20082;-84
2023/01/02 03:09:01;;;;;;;12.65;4.88;;;;;;;11.07;100.00;100942.63;4954878;29;20065;-81
2023/01/02 03:11:46;;;;;;;8.80;4.22;;;;;;;11.07;100.00;100934.88;4954599;29;20058;-87
2023/01/02 03:14:41;;;;;;;9.95;4.80;;;;;;;11.08;100.00;100931.38;4954808;29;20494;-84
2023/01/02 03:17:18;;;;;;;13.07;4.85;;;;;;;11.12;100.00;100939.78;4954754;29;20093;-86
2023/01/02 03:19:51;;;;;;;10.00;4.40;;;;;;;11.14;100.00;100937.91;4953286;23;20078;-82
2023/01/02 03:22:26;;;;;;;11.85;4.40;;;;;;;10.95;100.00;100909.81;4935465;29;20047;-86
2023/01/02 03:24:54;;;;;;;11.32;4.47;;;;;;;11.16;100.00;100941.22;4935393;29;20020;-84
2023/01/02 03:27:25;;;;;;;13.27;5.10;;;;;;;11.05;100.00;100916.06;4935350;29;20066;-85
2023/01/02 03:30:00;;;;;;;10.20;4.82;;;;;;;11.03;100.00;100909.34;4935224;29;20539;-85
2023/01/02 03:32:32;;;;;;;12.48;4.70;;;;;;;11.05;100.00;100905.72;4935438;29;20380;-83
2023/01/02 03:35:01;;;;;;;12.48;4.38;;;;;;;11.13;100.00;100920.75;4935535;29;20023;-79
2023/01/02 03:37:32;;;;;;;12.07;4.68;;;;;;;11.20;100.00;100925.41;4935365;29;20024;-78
2023/01/02 03:40:03;;;;;;;12.85;4.40;;;;;;;11.03;100.00;100897.25;4918504;29;20028;-77
2023/01/02 03:42:48;;;;;;;10.68;4.20;;;;;;;11.15;100.00;100908.56;4935028;29;20027;-79
2023/01/02 03:45:22;;;;;;;11.60;4.60;;;;;;;11.29;100.00;100942.09;4935195;29;20161;-78
2023/01/02 03:47:59;;;;;;;12.02;4.43;;;;;;;11.29;100.00;100942.09;4938359;29;20027;-76
2023/01/02 03:50:47;;;;;;;9.13;4.25;;;;;;;11.22;100.00;100946.03;4939167;29;20028;-75
2023/01/02 03:53:12;;;;;;;11.00;4.25;;;;;;;11.23;100.00;100949.44;4939042;29;20046;-80
2023/01/02 03:55:42;;;;;;;11.23;4.70;;;;;;;11.12;100.00;100926.84;4939263;29;20392;-77
2023/01/02 03:58:40;;;;;;;12.18;4.28;;;;;;;11.29;100.00;100961.94;4938747;29;20072;-78
2023/01/02 04:01:11;;;;;;;9.77;4.20;;;;;;;11.25;100.00;100960.50;4938904;29;20024;-79
2023/01/02 04:03:46;;;;;;;9.43;4.03;;;;;;;11.28;100.00;100968.88;4938946;29;20074;-78
2023/01/02 04:06:15;;;;;;;10.55;3.85;;;;;;;11.29;100.00;100967.13;4939123;29;20036;-78
2023/01/02 04:08:49;;;;;;;10.43;4.40;;;;;;;11.28;100.00;100965.47;4938941;29;20122;-76
2023/01/02 04:11:18;;;;;;;13.20;4.80;;;;;;;11.23;100.00;100965.78;4921424;29;20369;-77
2023/01/02 04:13:49;;;;;;;10.38;4.60;;;;;;;11.03;100.00;100936.03;4938724;29;20036;-76
2023/01/02 04:16:19;;;;;;;9.93;4.53;;;;;;;11.10;100.00;100970.03;4938480;29;20060;-76
2023/01/02 04:18:55;;;;;;;13.45;4.43;;;;;;;11.01;100.00;100962.84;4938362;29;20035;-78
2023/01/02 04:21:25;;;;;;;13.32;4.82;;;;;;;10.93;100.00;100953.03;4920760;29;20040;-80
2023/01/02 04:24:01;;;;;;;13.35;4.97;;;;;;;10.99;100.00;100965.53;4938349;29;20027;-76
2023/01/02 04:26:33;;;;;;;11.75;4.72;;;;;;;10.81;100.00;100935.69;4938327;29;20424;-75
2023/01/02 04:28:59;;;;;;;9.43;5.10;;;;;;;10.91;100.00;100953.13;4938142;29;20059;-79
2023/01/02 04:31:37;;;;;;;9.55;4.40;;;;;;;10.93;100.00;100955.59;4921000;29;20032;-87
2023/01/02 04:34:05;;;;;;;9.23;4.72;;;;;;;11.07;100.00;100983.97;4938459;29;20032;-86
2023/01/02 04:36:37;;;;;;;12.52;4.88;;;;;;;11.07;100.00;100986.56;4938589;29;20028;-86
2023/01/02 04:39:02;;;;;;;12.15;4.85;;;;;;;11.07;100.00;100978.81;4938303;29;20103;-87
2023/01/02 04:41:28;;;;;;;11.25;4.85;;;;;;;10.98;100.00;100973.41;4938109;29;20453;-84
2023/01/02 04:43:54;;;;;;;8.48;4.97;;;;;;;11.03;100.00;100990.28;4938011;29;20480;-84
2023/01/02 04:46:20;;;;;;;12.57;4.80;;;;;;;10.93;100.00;100980.63;4938119;29;20437;-77
2023/01/02 04:48:45;;;;;;;11.23;4.60;;;;;;;11.00;100.00;100993.03;4938006;29;20027;-80
2023/01/02 04:51:11;;;;;;;10.15;4.47;;;;;;;11.01;100.00;100993.88;4921252;29;20034;-85
2023/01/02 04:53:36;;;;;;;14.15;4.93;;;;;;;10.93;100.00;100978.84;4938052;29;20548;-86
2023/01/02 04:56:01;;;;;;;13.38;5.03;;;;;;;11.04;100.00;100988.53;4937994;29;20042;-85
2023/01/02 04:58:30;;;;;;;12.38;5.30;;;;;;;10.89;100.00;100970.44;4937651;29;20038;-86
2023/01/02 05:00:55;;;;;;;13.70;5.10;;;;;;;11.05;100.00;100991.00;4937997;29;20112;-84
2023/01/02 05:03:20;;;;;;;13.07;5.18;;;;;;;10.94;100.00;100985.69;4937989;29;20055;-85
2023/01/02 05:05:46;;;;;;;11.35;4.43;;;;;;;11.01;100.00;100996.44;4937837;29;20028;-85
2023/01/02 05:08:11;;;;;;;11.77;4.78;;;;;;;11.06;100.00;100992.66;4937800;29;20439;-85
2023/01/02 05:10:36;;;;;;;11.50;4.45;;;;;;;11.13;100.00;101013.81;4937528;29;20114;-85
2023/01/02 05:13:02;;;;;;;12.40;4.45;;;;;;;10.75;100.00;100954.16;4937603;29;20028;-85
2023/01/02 05:15:27;;;;;;;11.18;4.57;;;;;;;11.15;100.00;101010.19;4937647;29;20028;-86
2023/01/02 05:17:52;;;;;;;11.93;5.10;;;;;;;11.04;100.00;100980.78;4937530;29;20059;-84
2023/01/02 05:20:18;;;;;;;11.90;4.50;;;;;;;11.15;100.00;101005.00;4937572;29;20145;-85
2023/01/02 05:25:31;;;;;;;8.75;4.30;;;;;;;11.01;100.00;100989.56;4937483;29;20539;-86
2023/01/02 05:27:56;;;;;;;10.95;4.50;;;;;;;11.05;100.00;101000.53;4937164;29;20039;-86
2023/01/02 05:30:22;;;;;;;8.10;4.60;;;;;;;11.01;100.00;100978.34;4937398;29;20115;-86
2023/01/02 05:32:47;;;;;;;8.32;4.20;;;;;;;11.14;100.00;101007.69;4937382;29;20028;-87
2023/01/02 05:35:13;;;;;;;10.57;4.68;;;;;;;11.06;100.00;100997.84;4937492;29;20024;-87
2023/01/02 05:37:38;;;;;;;11.48;3.95;;;;;;;11.24;100.00;101031.22;4937332;29;20167;-87
2023/01/02 05:40:04;;;;;;;10.35;4.68;;;;;;;11.22;100.00;101027.91;4937122;29;20043;-86
2023/01/02 05:42:29;;;;;;;8.88;3.88;;;;;;;11.21;100.00;101040.00;4936978;29;20040;-87
2023/01/02 05:44:55;;;;;;;9.65;4.07;;;;;;;10.92;100.00;101003.03;4937198;29;20024;-87
2023/01/02 05:47:20;;;;;;;9.52;3.90;;;;;;;11.18;100.00;101047.94;4937003;29;20031;-86
2023/01/02 05:49:45;;;;;;;10.25;3.88;;;;;;;11.20;100.00;101057.25;4937274;29;20083;-87
2023/01/02 05:52:11;;;;;;;10.82;4.40;;;;;;;11.22;100.00;101056.34;4937291;29;20443;-87
2023/01/02 05:54:36;;;;;;;9.52;3.60;;;;;;;11.12;100.00;101040.56;4936771;29;20024;-86
2023/01/02 05:57:01;;;;;;;7.57;3.45;;;;;;;11.17;100.00;101052.28;4936778;29;20031;-86
2023/01/02 05:59:27;;;;;;;10.05;4.35;;;;;;;11.00;100.00;101028.38;4936644;29;20109;-85
2023/01/02 06:01:52;;;;;;;10.35;4.57;;;;;;;11.13;100.00;101039.66;4936777;29;20059;-87
2023/01/02 06:04:18;;;;;;;9.20;3.90;;;;;;;11.16;100.00;101060.13;4936892;29;20038;-86
2023/01/02 06:06:43;;;;;;;10.75;3.97;;;;;;;10.94;100.00;101033.94;4936744;29;20024;-77
2023/01/02 06:09:12;;;;;;;8.85;4.25;;;;;;;11.05;100.00;101052.22;4936406;29;20066;-87
2023/01/02 06:11:38;;;;;;;7.53;3.40;;;;;;;10.97;100.00;101042.34;4935883;29;20034;-86
2023/01/02 06:14:03;;;;;;;7.97;3.85;;;;;;;11.10;100.00;101073.41;4936389;29;20031;-84
2023/01/02 06:16:29;;;;;;;9.13;4.20;;;;;;;11.06;100.00;101074.53;4936722;29;20028;-86
2023/01/02 06:18:54;;;;;;;8.70;4.03;;;;;;;11.04;100.00;101081.56;4936645;29;20051;-86
2023/01/02 06:21:21;;;;;;;9.63;4.35;;;;;;;10.97;100.00;101088.84;4936227;29;20048;-77
2023/01/02 06:23:47;;;;;;;11.63;3.92;;;;;;;10.95;100.00;101093.28;4936226;29;20030;-76
2023/01/02 06:26:17;;;;;;;12.82;4.60;;;;;;;10.75;100.00;101078.16;4936515;29;20412;-77
2023/01/02 06:28:44;;;;;;;10.40;4.45;;;;;;;10.80;100.00;101138.09;4936387;29;20035;-76
2023/01/02 06:31:12;;;;;;;5.97;2.92;;;;;;;10.39;100.00;101132.75;4936187;29;20027;-77
2023/01/02 06:33:37;;;;;;;5.55;2.05;;;;;;;10.20;100.00;101143.25;4936185;29;20031;-83
2023/01/02 06:36:05;;;;;;;2.97;1.30;;;;;;;9.87;100.00;101131.34;4936144;29;20043;-82
2023/01/02 06:38:31;;;;;;;3.53;1.40;;;;;;;9.96;100.00;101161.78;4936319;29;20027;-84
2023/01/02 06:40:59;;;;;;;2.67;1.10;;;;;;;9.71;100.00;101140.81;4936229;29;20039;-85
2023/01/02 06:43:25;;;;;;;3.33;0.95;;;;;;;9.74;100.00;101169.03;4935786;29;20110;-85
2023/01/02 06:45:51;;;;;;;3.17;1.10;;;;;;;9.83;100.00;101199.47;4936049;29;20024;-85
2023/01/02 06:48:17;;;;;;;1.17;0.80;;;;;;;9.69;100.00;101187.31;4935990;29;20387;-76
2023/01/02 06:50:43;;;;;;;1.65;0.88;;;;;;;9.71;100.00;101203.53;4936095;29;20030;-85
2023/01/02 06:53:09;;;;;;;1.35;0.75;;;;;;;9.54;100.00;101190.72;4936007;29;20030;-78
2023/01/02 06:55:34;;;;;;;1.45;0.60;;;;;;;9.60;100.00;101223.91;4935809;29;20032;-77
2023/01/02 06:58:00;;;;;;;0.95;0.70;;;;;;;9.48;100.00;101216.81;4935857;29;20027;-80
2023/01/02 07:00:25;;;;;;;1.75;1.08;;;;;;;9.47;100.00;101231.44;4936302;29;20027;-78
2023/01/02 07:02:50;;;;;;;1.23;0.95;;;;;;;9.29;100.00;101204.06;4940081;29;20027;-77
2023/01/02 07:05:16;;;;;;;3.22;1.50;;;;;;;9.37;100.00;101227.69;4955107;29;20023;-78
2023/01/02 07:07:41;;;;;;;2.83;2.13;;;;;;;9.27;100.00;101225.66;4954795;29;20387;-77
2023/01/02 07:10:07;;;;;;;3.60;2.30;;;;;;;9.36;100.00;101259.53;4954744;29;20064;-78
2023/01/02 07:12:36;;;;;;;5.05;3.05;;;;;;;9.31;100.00;101264.06;4954587;29;20019;-79
2023/01/02 07:15:05;;;;;;;5.05;2.88;;;;;;;9.17;100.00;101253.63;4954709;29;20480;-79
2023/01/02 07:17:32;;;;;;;3.85;2.45;;;;;;;9.27;100.00;101280.63;4954505;29;20467;-78
2023/01/02 07:19:58;;;;;;;3.90;2.67;;;;;;;9.15;100.00;101282.06;4954520;29;20051;-79
2023/01/02 07:22:23;;;;;;;3.45;2.40;;;;;;;9.21;100.00;101293.78;4937181;29;20559;-78
2023/01/02 07:24:49;;;;;;;3.53;2.30;;;;;;;9.16;100.00;101298.34;4954568;29;20027;-78
2023/01/02 07:27:14;;;;;;;3.03;2.20;;;;;;;9.08;100.00;101293.56;4954586;29;20063;-80
2023/01/02 07:29:39;;;;;;;4.88;2.70;;;;;;;8.96;100.00;101280.47;4937342;29;20110;-78
2023/01/02 07:32:04;;;;;;;3.83;2.40;;;;;;;9.17;100.00;101325.78;4954443;29;20027;-79
2023/01/02 07:34:30;;;;;;;4.70;2.70;;;;;;;9.13;100.00;101324.25;4936497;29;20050;-78
2023/01/02 07:36:55;;;;;;;4.40;3.08;;;;;;;9.18;100.00;101335.19;4954424;29;20019;-79
2023/01/02 07:39:23;;;;;;;4.70;2.78;;;;;;;8.97;100.00;101310.47;4954494;29;20028;-78
2023/01/02 07:41:49;;;;;;;5.60;3.40;;;;;;;9.18;100.00;101345.50;4937228;29;20039;-78
2023/01/02 07:44:14;;;;;;;4.50;2.88;;;;;;;9.16;100.00;101334.44;4953044;29;20042;-75
2023/01/02 07:46:40;;;;;;;5.45;2.90;;;;;;;9.12;100.00;101350.94;4935282;29;20503;-76
2023/01/02 07:49:05;;;;;;;5.15;2.95;;;;;;;9.02;100.00;101336.81;4934544;29;20078;-78
2023/01/02 07:51:31;;;;;;;4.70;2.58;;;;;;;9.08;100.00;101362.31;4936113;29;20068;-79
2023/01/02 07:53:56;;;;;;;5.03;2.92;;;;;;;9.05;100.00;101381.31;4935050;29;20185;-78
2023/01/02 07:56:22;;;;;;;4.85;3.03;;;;;;;8.94;100.00;101377.56;4918443;29;20047;-78
2023/01/02 07:58:47;;;;;;;5.32;3.17;;;;;;;8.79;100.00;101353.38;4935158;29;20539;-77
2023/01/02 08:01:13;;;;;;;5.07;2.80;;;;;;;9.04;100.00;101400.25;4934834;29;20440;-78
2023/01/02 08:03:38;;;;;;;6.40;3.50;;;;;;;9.04;100.00;101407.97;4935122;29;20028;-76
2023/01/02 08:06:06;;;;;;;6.97;3.88;;;;;;;9.05;100.00;101406.25;4935377;29;20028;-74
2023/01/02 08:08:32;;;;;;;5.70;3.00;;;;;;;8.86;100.00;101372.81;4935181;29;20039;-76
2023/01/02 08:10:57;;;;;;;5.90;3.25;;;;;;;8.99;100.00;101406.53;4935541;29;20111;-77
2023/01/02 08:13:23;;;;;;;5.55;3.10;;;;;;;9.07;100.00;101419.88;4934882;29;20036;-78
2023/01/02 08:15:48;;;;;;;5.40;3.08;;;;;;;8.97;100.00;101408.34;4934753;29;20024;-77
2023/01/02 08:18:13;;;;;;;6.10;3.58;;;;;;;9.06;100.00;101431.94;4935357;29;20023;-79
2023/01/02 08:20:39;;;;;;;5.90;2.88;;;;;;;9.05;100.00;101440.56;4934911;29;20139;-76
2023/01/02 08:23:04;;;;;;;5.07;2.97;;;;;;;8.99;100.00;101438.28;4935125;29;20094;-76
2023/01/02 08:25:29;;;;;;;5.78;2.97;;;;;;;9.03;100.00;101452.66;4934844;29;20038;-81
2023/01/02 08:27:55;;;;;;;4.65;2.28;;;;;;;9.00;100.00;101446.84;4917581;29;20036;-84
2023/01/02 08:30:20;;;;;;;6.57;2.78;;;;;;;8.94;100.00;101450.53;4934795;29;20028;-81
2023/01/02 08:32:45;;;;;;;5.38;2.70;;;;;;;8.93;100.00;101463.47;4935137;29;20020;-82
2023/01/02 08:35:11;;;;;;;5.03;2.85;;;;;;;8.91;100.00;101461.81;4938388;29;20050;-81
2023/01/02 08:37:36;;;;;;;4.40;2.60;;;;;;;8.94;100.00;101465.13;4938455;29;20024;-79
2023/01/02 08:40:01;;;;;;;4.85;2.40;;;;;;;8.91;100.00;101473.84;4938541;29;20383;-82
2023/01/02 08:42:27;;;;;;;6.50;2.70;;;;;;;8.88;100.00;101467.09;4938423;29;20402;-74
2023/01/02 08:44:52;;;;;;;4.47;2.55;;;;;;;8.94;100.00;101475.44;4938302;29;20059;-73
2023/01/02 08:47:18;;;;;;;5.50;2.63;;;;;;;8.93;100.00;101477.19;4938127;29;20024;-75
2023/01/02 08:49:43;;;;;;;5.15;2.60;;;;;;;8.90;100.00;101475.59;4936993;29;20032;-75
2023/01/02 08:52:08;;;;;;;6.10;3.20;;;;;;;8.93;100.00;101496.97;4939006;29;20035;-74
2023/01/02 08:54:34;;;;;;;4.72;2.47;;;;;;;8.95;100.00;101490.00;4938102;29;20049;-72
2023/01/02 08:57:00;;;;;;;5.53;2.90;;;;;;;8.89;100.00;101504.84;4937907;29;20411;-72
2023/01/02 08:59:26;;;;;;;5.72;3.10;;;;;;;8.78;100.00;101488.19;4938100;29;20038;-75
2023/01/02 09:01:51;;;;;;;6.78;3.22;;;;;;;8.90;100.00;101509.06;4937758;29;20435;-76
2023/01/02 09:04:17;;;;;;;6.25;3.42;;;;;;;8.77;100.00;101486.53;4938003;29;20364;-76
2023/01/02 09:06:43;;;;;;;6.90;3.80;;;;;;;8.82;100.00;101502.59;4937967;29;20090;-75
2023/01/02 09:09:10;;;;;;;6.22;3.85;;;;;;;8.94;100.00;101516.66;4937924;29;20083;-77
2023/01/02 09:11:38;;;;;;;6.47;4.32;;;;;;;8.82;100.00;101494.88;4937562;29;20057;-75
2023/01/02 09:14:04;;;;;;;8.13;4.60;;;;;;;8.95;100.00;101524.34;4937796;29;20031;-77
2023/01/02 09:16:31;;;;;;;8.88;5.53;;;;;;;8.97;100.00;101529.41;4937559;29;20028;-76
2023/01/02 09:18:58;;;;;;;8.15;5.47;;;;;;;8.81;100.00;101509.50;4937623;29;20665;-74
2023/01/02 09:21:24;;;;;;;8.38;5.05;;;;;;;8.73;100.00;101500.44;4937426;29;20051;-85
2023/01/02 09:23:49;;;;;;;10.68;5.32;;;;;;;8.57;100.00;101485.69;4937728;29;20066;-77
2023/01/02 09:26:15;;;;;;;9.80;5.40;;;;;;;8.98;100.00;101551.69;4937803;29;20095;-75
2023/01/02 09:28:40;;;;;;;9.60;5.53;;;;;;;8.90;100.00;101558.00;4937552;29;20499;-90
2023/01/02 09:31:08;;;;;;;10.27;5.45;;;;;;;8.90;100.00;101572.63;4949103;29;20039;-76
2023/01/02 09:33:34;;;;;;;9.55;5.20;;;;;;;8.73;100.00;101544.19;4956583;29;20043;-75
2023/01/02 09:36:07;;;;;;;8.68;5.28;;;;;;;8.79;100.00;101557.66;4956679;29;20023;-77
2023/01/02 09:38:32;;;;;;;8.95;4.88;;;;;;;8.86;100.00;101569.38;4956535;29;20380;-76
2023/01/02 09:41:00;;;;;;;10.13;4.30;;;;;;;8.95;100.00;101588.75;4956267;29;20031;-75
2023/01/02 09:43:50;;;;;;;8.75;4.68;;;;;;;8.95;100.00;101577.56;4956446;29;20029;-78
2023/01/02 09:46:48;;;;;;;7.43;4.25;;;;;;;9.03;100.00;101596.94;4956334;29;20023;-82
2023/01/02 09:49:18;;;;;;;8.88;4.43;;;;;;;8.92;100.00;101581.13;4881500;29;20556;-77
2023/01/02 09:51:45;;;;;;;9.57;4.90;;;;;;;9.03;100.00;101598.69;4897149;29;20161;-80
2023/01/02 09:54:20;;;;;;;9.70;4.53;;;;;;;9.02;100.00;101605.56;4897255;29;20393;-77
2023/01/02 09:56:53;;;;;;;9.45;4.40;;;;;;;8.89;100.00;101583.84;4897205;29;20143;-87
2023/01/02 09:59:30;;;;;;;7.65;3.83;;;;;;;8.70;100.00;101552.91;4897259;29;20513;-80
2023/01/02 10:02:16;;;;;;;8.68;3.88;;;;;;;8.86;100.00;101581.41;4896915;29;20060;-83
2023/01/02 10:05:11;;;;;;;7.82;3.80;;;;;;;8.76;100.00;101569.84;4896863;29;20097;-78
2023/01/02 10:08:17;;;;;;;9.35;3.58;;;;;;;8.93;100.00;101612.88;4896600;29;20116;-84
2023/01/02 10:10:51;;;;;;;7.55;3.47;;;;;;;8.93;100.00;101608.56;4896120;29;20033;-81
2023/01/02 10:13:25;;;;;;;7.60;3.75;;;;;;;8.94;100.00;101609.38;4896502;29;20116;-82
2023/01/02 10:15:53;;;;;;;8.23;3.50;;;;;;;8.86;100.00;101591.72;4896485;29;20043;-84
2023/01/02 10:18:27;;;;;;;7.97;3.40;;;;;;;8.66;100.00;101568.56;4896402;29;20371;-83
2023/01/02 10:20:58;;;;;;;8.40;3.40;;;;;;;8.98;100.00;101616.94;4896176;29;20215;-81
2023/01/02 10:23:26;;;;;;;;;;;;;;;9.08;100.00;101615.63;4896429;29;20032;-81
2023/01/02 10:26:01;;;;;;;7.05;2.85;;;;;;;9.08;100.00;101618.19;4920776;29;19910;-83
2023/01/02 10:28:42;;;;;;;10.18;3.33;;;;;;;9.12;100.00;101618.88;4917929;29;20043;-77
2023/01/02 10:31:19;;;;;;;5.80;2.97;;;;;;;9.17;100.00;101617.78;4917644;29;20028;-76
2023/01/02 10:33:51;;;;;;;8.73;3.92;;;;;;;9.17;100.00;101617.78;4927064;29;20035;-78
2023/01/02 10:36:21;;;;;;;;;;;;;;;9.27;100.00;101615.66;4936574;29;20024;-81
2023/01/02 10:38:47;;;;;;;8.80;3.78;;;;;;;9.22;100.00;101619.31;4936408;29;19914;-80
2023/01/02 10:41:12;;;;;;;10.95;4.60;;;;;;;9.17;100.00;101637.56;4936140;29;20432;-80
2023/01/02 10:43:37;;;;;;;8.55;3.95;;;;;;;9.11;100.00;101643.81;4935973;29;20063;-78
2023/01/02 10:46:03;;;;;;;8.45;4.55;;;;;;;9.07;100.00;101638.88;4935997;29;20027;-77
2023/01/02 10:48:32;;;;;;;8.80;4.40;;;;;;;8.85;100.00;101598.59;4918400;29;20028;-79
2023/01/02 10:51:03;;;;;;;8.13;4.35;;;;;;;8.89;100.00;101602.72;4936038;29;20028;-79
2023/01/02 10:53:35;;;;;;;11.45;4.70;;;;;;;9.08;100.00;101631.09;4935711;29;20023;-79
2023/01/02 10:56:02;;;;;;;8.75;4.95;;;;;;;9.03;100.00;101634.75;4935244;29;20111;-78
2023/01/02 10:58:30;;;;;;;8.88;4.90;;;;;;;8.95;100.00;101622.22;4935452;29;20019;-78
2023/01/02 11:01:12;;;;;;;9.10;4.65;;;;;;;8.95;100.00;101623.94;4935653;29;20472;-79
2023/01/02 11:03:37;;;;;;;;;;;;;;;9.12;100.00;101640.34;4935890;29;20028;-80
2023/01/02 11:06:03;;;;;;;10.18;4.80;;;;;;;8.99;100.00;101628.06;4935946;29;19915;-77
2023/01/02 11:08:37;;;;;;;10.98;5.70;;;;;;;9.07;100.00;101652.59;4954724;29;20791;-78
2023/01/02 11:11:17;;;;;;;10.27;6.10;;;;;;;8.98;100.00;101634.97;4955008;29;20059;-79
2023/01/02 11:13:45;;;;;;;12.05;6.15;;;;;;;8.91;100.00;101628.41;4954649;29;20407;-79
2023/01/02 11:16:14;;;;;;;14.63;6.82;;;;;;;9.15;100.00;101666.00;4954718;29;20027;-79
2023/01/02 11:18:44;;;;;;;13.18;7.45;;;;;;;9.05;100.00;101638.13;4954445;29;20023;-82
2023/01/02 11:21:09;;;;;;;10.95;6.50;;;;;;;9.12;100.00;101632.59;4954523;29;20054;-78
2023/01/02 11:23:41;;;;;;;10.93;6.85;;;;;;;9.32;100.00;101665.22;4954611;29;20023;-77
2023/01/02 11:26:18;;;;;;;11.00;6.88;;;;;;;9.36;100.00;101678.84;4954754;29;20027;-77
2023/01/02 11:28:44;;;;;;;11.20;7.35;;;;;;;9.35;100.00;101659.13;4954674;29;20023;-78
2023/01/02 11:31:13;;;;;;;12.23;7.45;;;;;;;9.23;100.00;101649.34;4937005;29;20071;-78